createdAt,value
2023-04-22T00:01:58.942Z,1.00
2023-04-22T00:04:12.529Z,1.00
2023-04-22T00:06:25.315Z,0.70
2023-04-22T00:08:38.699Z,0.90
2023-04-22T00:10:51.603Z,1.00
2023-04-22T00:13:04.339Z,1.10
2023-04-22T00:15:21.300Z,1.10
2023-04-22T00:17:33.857Z,1.10
2023-04-22T00:19:47.332Z,0.70
2023-04-22T00:22:00.108Z,0.90
2023-04-22T00:24:13.463Z,1.10
2023-04-22T00:26:26.160Z,0.90
2023-04-22T00:28:39.146Z,0.90
2023-04-22T00:30:52.199Z,0.90
2023-04-22T00:33:04.857Z,1.50
2023-04-22T00:35:17.930Z,0.80
2023-04-22T00:37:31.031Z,1.20
2023-04-22T00:39:44.171Z,0.90
2023-04-22T00:41:57.193Z,1.00
2023-04-22T00:44:12.079Z,1.00
2023-04-22T00:46:25.528Z,0.90
2023-04-22T00:48:39.055Z,1.00
2023-04-22T00:51:13.000Z,1.20
2023-04-22T00:53:25.640Z,0.90
2023-04-22T00:55:38.756Z,0.90
2023-04-22T00:57:52.376Z,0.90
2023-04-22T01:00:05.969Z,0.90
2023-04-22T01:02:19.801Z,1.00
2023-04-22T01:04:33.011Z,1.10
2023-04-22T01:06:46.489Z,0.80
2023-04-22T01:09:00.255Z,1.20
2023-04-22T01:11:13.722Z,0.90
2023-04-22T01:13:27.057Z,1.00
2023-04-22T01:15:40.736Z,0.80
2023-04-22T01:17:54.248Z,0.80
2023-04-22T01:20:11.154Z,1.00
2023-04-22T01:22:24.817Z,0.90
2023-04-22T01:24:39.773Z,1.00
2023-04-22T01:26:53.255Z,0.80
2023-04-22T01:29:08.575Z,0.90
2023-04-22T01:31:21.769Z,0.90
2023-04-22T01:33:34.886Z,0.70
2023-04-22T01:35:51.322Z,0.70
2023-04-22T01:38:04.209Z,1.10
2023-04-22T01:40:20.925Z,1.30
2023-04-22T01:42:38.283Z,0.80
2023-04-22T01:44:56.935Z,1.10
2023-04-22T01:47:09.514Z,1.20
2023-04-22T01:49:22.167Z,0.90
2023-04-22T01:51:38.231Z,1.00
2023-04-22T01:53:51.531Z,0.90
2023-04-22T01:56:04.880Z,1.00
2023-04-22T01:58:18.073Z,0.80
2023-04-22T02:00:30.874Z,1.10
2023-04-22T02:02:47.142Z,0.80
2023-04-22T02:04:59.837Z,1.10
2023-04-22T02:07:13.249Z,0.90
2023-04-22T02:09:26.315Z,1.00
2023-04-22T02:11:39.252Z,0.90
2023-04-22T02:14:06.511Z,0.70
2023-04-22T02:16:19.416Z,0.80
2023-04-22T02:18:32.214Z,0.90
2023-04-22T02:20:45.448Z,1.00
2023-04-22T02:23:07.754Z,1.00
2023-04-22T02:25:31.794Z,1.10
2023-04-22T02:27:44.504Z,1.20
2023-04-22T02:29:57.446Z,1.20
2023-04-22T02:32:10.524Z,1.20
2023-04-22T02:34:23.701Z,1.00
2023-04-22T02:36:36.747Z,1.00
2023-04-22T02:38:52.619Z,1.10
2023-04-22T02:41:05.254Z,1.10
2023-04-22T02:43:28.989Z,1.10
2023-04-22T02:45:42.661Z,1.40
2023-04-22T02:47:55.523Z,1.10
2023-04-22T02:50:08.797Z,1.10
2023-04-22T02:52:21.820Z,1.00
2023-04-22T02:54:34.563Z,1.00
2023-04-22T02:56:47.601Z,1.20
2023-04-22T02:59:00.228Z,1.10
2023-04-22T03:01:12.998Z,1.00
2023-04-22T03:03:30.326Z,0.90
2023-04-22T03:05:43.106Z,1.20
2023-04-22T03:07:55.518Z,1.20
2023-04-22T03:10:08.618Z,1.30
2023-04-22T03:12:25.218Z,0.90
2023-04-22T03:14:38.344Z,1.00
2023-04-22T03:16:51.368Z,1.10
2023-04-22T03:19:04.227Z,1.60
2023-04-22T03:21:17.706Z,1.30
2023-04-22T03:23:30.566Z,1.30
2023-04-22T03:25:46.162Z,1.20
2023-04-22T03:27:59.527Z,1.00
2023-04-22T03:30:14.774Z,0.90
2023-04-22T03:32:28.158Z,1.10
2023-04-22T03:35:04.221Z,1.40
2023-04-22T03:37:20.126Z,1.40
2023-04-22T03:39:36.652Z,1.10
2023-04-22T03:41:50.932Z,1.10
2023-04-22T03:44:03.682Z,1.00
2023-04-22T03:46:18.128Z,1.10
2023-04-22T03:48:39.955Z,1.20
2023-04-22T03:51:10.070Z,1.10
2023-04-22T03:53:23.700Z,1.10
2023-04-22T03:55:40.019Z,1.70
2023-04-22T03:57:52.915Z,1.60
2023-04-22T04:00:05.897Z,1.40
2023-04-22T04:02:29.872Z,1.30
2023-04-22T04:04:47.011Z,1.50
2023-04-22T04:07:00.881Z,1.30
2023-04-22T04:09:14.165Z,1.50
2023-04-22T04:11:27.425Z,1.20
2023-04-22T04:13:41.740Z,1.20
2023-04-22T04:16:05.215Z,1.30
2023-04-22T04:18:18.150Z,1.60
2023-04-22T04:20:32.578Z,1.40
2023-04-22T04:22:45.776Z,1.40
2023-04-22T04:25:03.040Z,1.70
2023-04-22T04:27:20.508Z,1.90
2023-04-22T04:29:37.201Z,2.10
2023-04-22T04:31:54.688Z,1.70
2023-04-22T04:34:08.478Z,2.10
2023-04-22T04:36:33.919Z,2.10
2023-04-22T04:38:56.188Z,2.30
2023-04-22T04:41:18.757Z,1.70
2023-04-22T04:43:31.486Z,1.90
2023-04-22T04:46:02.249Z,1.50
2023-04-22T04:48:20.990Z,1.40
2023-04-22T04:50:47.594Z,1.40
2023-04-22T04:53:00.559Z,1.90
2023-04-22T04:55:18.877Z,1.70
2023-04-22T04:57:32.180Z,1.60
2023-04-22T04:59:45.450Z,1.80
2023-04-22T05:01:58.393Z,2.20
2023-04-22T05:04:11.706Z,1.80
2023-04-22T05:06:28.168Z,1.60
2023-04-22T05:08:45.228Z,1.70
2023-04-22T05:10:58.891Z,1.90
2023-04-22T05:13:23.596Z,1.30
2023-04-22T05:15:36.356Z,1.70
2023-04-22T05:17:49.497Z,1.20
2023-04-22T05:20:02.366Z,1.50
2023-04-22T05:22:15.361Z,1.70
2023-04-22T05:24:29.032Z,1.80
2023-04-22T05:26:53.228Z,1.90
2023-04-22T05:29:06.120Z,1.50
2023-04-22T05:31:19.053Z,1.90
2023-04-22T05:33:51.909Z,1.50
2023-04-22T05:36:06.069Z,1.70
2023-04-22T05:38:29.019Z,1.60
2023-04-22T05:40:42.118Z,1.50
2023-04-22T05:42:56.281Z,1.80
2023-04-22T05:45:11.206Z,1.80
2023-04-22T05:47:24.311Z,1.60
2023-04-22T05:49:37.456Z,1.40
2023-04-22T05:52:06.013Z,1.40
2023-04-22T05:54:31.640Z,2.20
2023-04-22T05:56:44.352Z,2.20
2023-04-22T05:58:57.533Z,2.10
2023-04-22T06:01:12.502Z,2.10
2023-04-22T06:03:38.085Z,1.70
2023-04-22T06:05:51.540Z,1.60
2023-04-22T06:08:13.664Z,2.00
2023-04-22T06:10:26.729Z,2.00
2023-04-22T06:12:39.600Z,2.10
2023-04-22T06:14:52.560Z,1.70
2023-04-22T06:17:05.120Z,2.30
2023-04-22T06:19:17.789Z,1.80
2023-04-22T06:21:31.056Z,2.20
2023-04-22T06:23:43.915Z,2.50
2023-04-22T06:25:57.242Z,2.50
2023-04-22T06:28:10.261Z,1.60
2023-04-22T06:30:24.528Z,2.20
2023-04-22T06:32:37.269Z,2.40
2023-04-22T06:37:09.948Z,2.10
2023-04-22T06:39:23.809Z,2.00
2023-04-22T06:42:08.570Z,2.20
2023-04-22T06:44:33.396Z,1.80
2023-04-22T06:47:12.280Z,1.70
2023-04-22T06:49:44.322Z,2.00
2023-04-22T06:52:09.421Z,2.00
2023-04-22T06:54:27.268Z,1.90
2023-04-22T06:56:43.542Z,1.80
2023-04-22T06:58:56.322Z,2.00
2023-04-22T07:01:09.465Z,2.20
2023-04-22T07:03:23.058Z,1.70
2023-04-22T07:05:45.792Z,2.10
2023-04-22T07:08:18.584Z,1.80
2023-04-22T07:10:40.597Z,2.00
2023-04-22T07:13:16.327Z,2.20
2023-04-22T07:15:29.582Z,2.10
2023-04-22T07:17:51.733Z,2.20
2023-04-22T07:20:04.605Z,2.40
2023-04-22T07:22:17.443Z,2.40
2023-04-22T07:24:33.544Z,1.90
2023-04-22T07:26:50.278Z,1.80
2023-04-22T07:29:06.498Z,1.80
2023-04-22T07:31:19.318Z,2.20
2023-04-22T07:33:32.542Z,2.00
2023-04-22T07:35:45.433Z,2.10
2023-04-22T07:37:58.508Z,2.10
2023-04-22T07:40:15.025Z,2.10
2023-04-22T07:42:28.001Z,2.70
2023-04-22T07:44:40.866Z,1.90
2023-04-22T07:46:55.030Z,2.10
2023-04-22T07:49:07.727Z,2.20
2023-04-22T07:51:20.538Z,2.50
2023-04-22T07:53:33.407Z,3.00
2023-04-22T07:55:46.193Z,2.40
2023-04-22T07:57:59.236Z,2.70
2023-04-22T08:00:14.457Z,2.40
2023-04-22T08:02:27.573Z,2.30
2023-04-22T08:04:43.758Z,2.50
2023-04-22T08:06:57.015Z,2.70
2023-04-22T08:09:11.344Z,2.40
2023-04-22T08:11:24.595Z,2.90
2023-04-22T08:13:37.273Z,2.20
2023-04-22T08:15:50.296Z,1.90
2023-04-22T08:18:03.165Z,1.90
2023-04-22T08:20:19.083Z,2.10
2023-04-22T08:22:33.321Z,2.10
2023-04-22T08:24:49.814Z,1.80
2023-04-22T08:27:03.676Z,2.00
2023-04-22T08:29:20.199Z,1.90
2023-04-22T08:31:33.164Z,2.30
2023-04-22T08:33:46.427Z,2.40
2023-04-22T08:35:59.252Z,2.40
2023-04-22T08:38:15.255Z,2.00
2023-04-22T08:40:28.178Z,2.40
2023-04-22T08:42:41.104Z,2.00
2023-04-22T08:44:54.805Z,2.00
2023-04-22T08:47:09.536Z,2.50
2023-04-22T08:49:23.722Z,2.40
2023-04-22T08:51:38.057Z,1.90
2023-04-22T08:53:51.543Z,2.40
2023-04-22T08:56:04.734Z,2.20
2023-04-22T08:58:17.429Z,2.70
2023-04-22T09:00:30.916Z,2.70
2023-04-22T09:02:46.217Z,2.00
2023-04-22T09:04:59.006Z,3.00
2023-04-22T09:07:13.521Z,2.30
2023-04-22T09:09:26.649Z,2.50
2023-04-22T09:11:41.016Z,2.80
2023-04-22T09:13:54.121Z,1.80
2023-04-22T09:16:06.725Z,2.40
2023-04-22T09:18:23.056Z,2.40
2023-04-22T09:20:39.121Z,2.40
2023-04-22T09:23:06.095Z,2.40
2023-04-22T09:25:26.035Z,2.70
2023-04-22T09:27:41.465Z,2.50
2023-04-22T09:29:56.198Z,2.80
2023-04-22T09:32:15.410Z,2.60
2023-04-22T09:34:30.805Z,2.30
2023-04-22T09:36:43.302Z,2.10
2023-04-22T09:39:06.989Z,2.40
2023-04-22T09:41:35.442Z,2.20
2023-04-22T09:43:57.718Z,2.70
2023-04-22T09:46:10.658Z,2.50
2023-04-22T09:48:33.149Z,2.40
2023-04-22T09:50:50.377Z,2.30
2023-04-22T09:53:05.193Z,2.10
2023-04-22T09:55:17.974Z,2.30
2023-04-22T09:57:30.627Z,2.80
2023-04-22T09:59:46.201Z,2.00
2023-04-22T10:02:36.933Z,2.40
2023-04-22T10:04:50.588Z,2.00
2023-04-22T10:07:06.334Z,1.70
2023-04-22T10:09:31.221Z,2.20
2023-04-22T10:11:48.187Z,2.00
2023-04-22T10:14:21.564Z,1.90
2023-04-22T10:16:37.879Z,1.90
2023-04-22T10:18:52.328Z,1.50
2023-04-22T10:21:16.330Z,1.60
2023-04-22T10:23:35.682Z,2.00
2023-04-22T10:25:54.312Z,1.40
2023-04-22T10:28:30.800Z,1.30
2023-04-22T10:30:47.212Z,1.70
2023-04-22T10:33:41.937Z,1.60
2023-04-22T10:36:15.660Z,1.60
2023-04-22T10:38:31.990Z,1.70
2023-04-22T10:41:04.514Z,1.60
2023-04-22T10:43:43.624Z,1.20
2023-04-22T10:46:07.837Z,1.40
2023-04-22T10:48:20.543Z,1.80
2023-04-22T10:50:53.399Z,1.40
2023-04-22T10:53:45.132Z,1.70
2023-04-22T10:56:02.202Z,1.80
2023-04-22T10:58:28.000Z,1.50
2023-04-22T11:01:04.233Z,1.60
2023-04-22T11:03:22.481Z,1.90
2023-04-22T11:05:46.938Z,1.90
2023-04-22T11:08:24.971Z,1.60
2023-04-22T11:10:46.194Z,1.70
2023-04-22T11:13:03.158Z,1.30
2023-04-22T11:15:38.708Z,1.80
2023-04-22T11:17:55.140Z,1.60
2023-04-22T11:20:28.163Z,1.50
2023-04-22T11:23:02.128Z,1.60
2023-04-22T11:25:35.052Z,1.70
2023-04-22T11:27:48.979Z,1.70
2023-04-22T11:30:13.014Z,1.90
2023-04-22T11:32:29.462Z,2.10
2023-04-22T11:35:06.364Z,2.00
2023-04-22T11:37:24.603Z,2.00
2023-04-22T11:40:27.323Z,1.70
2023-04-22T11:42:35.636Z,1.70
2023-04-22T11:44:51.408Z,1.80
2023-04-22T11:47:07.562Z,2.10
2023-04-22T11:49:23.639Z,1.90
2023-04-22T11:52:03.196Z,2.00
2023-04-22T11:54:15.863Z,2.10
2023-04-22T11:56:42.798Z,2.50
2023-04-22T11:59:13.277Z,2.20
2023-04-22T12:01:32.992Z,2.30
2023-04-22T12:04:09.379Z,2.40
2023-04-22T12:06:42.887Z,2.20
2023-04-22T12:09:02.321Z,2.20
2023-04-22T12:11:35.397Z,2.90
2023-04-22T12:13:52.809Z,2.40
2023-04-22T12:16:14.185Z,3.20
2023-04-22T12:18:38.391Z,2.50
2023-04-22T12:21:14.682Z,2.50
2023-04-22T12:23:47.455Z,2.60
2023-04-22T12:26:11.144Z,2.70
2023-04-22T12:28:29.774Z,2.70
2023-04-22T12:30:52.905Z,3.20
2023-04-22T12:33:25.829Z,3.30
2023-04-22T12:35:38.626Z,3.30
2023-04-22T12:38:01.796Z,3.30
2023-04-22T12:40:25.168Z,3.20
2023-04-22T12:42:38.429Z,2.70
2023-04-22T12:45:01.389Z,3.20
2023-04-22T12:47:24.245Z,2.60
2023-04-22T12:49:59.615Z,2.70
2023-04-22T12:52:32.804Z,2.70
2023-04-22T12:54:48.973Z,2.10
2023-04-22T12:57:05.588Z,3.00
2023-04-22T12:59:30.611Z,2.60
2023-04-22T13:01:46.414Z,2.90
2023-04-22T13:03:59.627Z,3.00
2023-04-22T13:06:15.702Z,2.80
2023-04-22T13:08:38.441Z,3.30
2023-04-22T13:11:14.411Z,3.30
2023-04-22T13:13:47.774Z,2.80
2023-04-22T13:16:20.517Z,2.60
2023-04-22T13:18:36.970Z,2.80
2023-04-22T13:20:52.631Z,2.60
2023-04-22T13:23:09.250Z,2.50
2023-04-22T13:25:25.428Z,2.30
2023-04-22T13:27:51.802Z,2.90
2023-04-22T13:30:05.209Z,2.80
2023-04-22T13:32:21.313Z,2.60
2023-04-22T13:34:37.465Z,2.90
2023-04-22T13:36:50.723Z,3.00
2023-04-22T13:39:06.896Z,2.40
2023-04-22T13:41:22.719Z,2.60
2023-04-22T13:43:39.199Z,2.70
2023-04-22T13:46:01.174Z,2.80
2023-04-22T13:48:24.272Z,3.00
2023-04-22T13:50:43.637Z,2.80
2023-04-22T13:52:56.879Z,2.30
2023-04-22T13:55:14.522Z,2.40
2023-04-22T13:57:27.173Z,2.30
2023-04-22T13:59:44.103Z,2.00
2023-04-22T14:01:56.964Z,2.60
2023-04-22T14:04:14.110Z,2.60
2023-04-22T14:06:30.034Z,2.20
2023-04-22T14:08:46.432Z,2.60
2023-04-22T14:11:19.117Z,3.00
2023-04-22T14:13:35.302Z,2.50
2023-04-22T14:15:59.366Z,2.70
2023-04-22T14:18:12.072Z,3.10
2023-04-22T14:20:26.253Z,3.10
2023-04-22T14:22:41.649Z,3.00
2023-04-22T14:24:58.004Z,2.50
2023-04-22T14:27:12.448Z,2.80
2023-04-22T14:29:25.502Z,2.20
2023-04-22T14:31:58.044Z,2.20
2023-04-22T14:34:21.869Z,2.30
2023-04-22T14:36:38.827Z,2.00
2023-04-22T14:39:11.539Z,2.30
2023-04-22T14:41:28.194Z,2.30
2023-04-22T14:44:00.872Z,3.90
2023-04-22T14:46:35.356Z,2.50
2023-04-22T14:49:08.354Z,2.10
2023-04-22T14:51:26.868Z,2.30
2023-04-22T14:53:48.637Z,2.00
2023-04-22T14:56:22.783Z,2.50
2023-04-22T14:58:38.949Z,2.50
2023-04-22T15:01:11.955Z,2.40
2023-04-22T15:03:44.945Z,2.50
2023-04-22T15:06:14.944Z,2.20
2023-04-22T15:08:31.005Z,2.20
2023-04-22T15:11:03.937Z,2.20
2023-04-22T15:13:19.498Z,2.10
2023-04-22T15:15:36.094Z,2.20
2023-04-22T15:18:10.109Z,2.80
2023-04-22T15:20:33.979Z,2.00
2023-04-22T15:23:06.961Z,2.60
2023-04-22T15:25:19.775Z,2.30
2023-04-22T15:27:53.707Z,2.10
2023-04-22T15:30:16.799Z,2.10
2023-04-22T15:32:41.986Z,2.70
2023-04-22T15:35:05.830Z,2.00
2023-04-22T15:37:18.856Z,1.80
2023-04-22T15:39:35.154Z,2.30
2023-04-22T15:41:48.079Z,2.30
2023-04-22T15:44:05.139Z,2.40
2023-04-22T15:46:18.912Z,2.10
2023-04-22T15:48:52.561Z,2.60
2023-04-22T15:51:26.620Z,2.70
2023-04-22T15:53:49.703Z,2.60
2023-04-22T15:56:12.977Z,2.40
2023-04-22T15:58:46.096Z,2.60
2023-04-22T16:03:40.742Z,2.20
2023-04-22T16:05:56.884Z,1.90
2023-04-22T16:08:29.503Z,2.10
2023-04-22T16:11:08.554Z,2.20
2023-04-22T16:13:21.927Z,1.70
2023-04-22T16:15:35.053Z,2.30
2023-04-22T16:17:58.417Z,2.30
2023-04-22T16:20:13.676Z,2.10
2023-04-22T16:22:46.481Z,2.00
2023-04-22T16:25:05.366Z,2.00
2023-04-22T16:27:28.934Z,1.90
2023-04-22T16:29:42.407Z,1.90
2023-04-22T16:32:15.390Z,1.90
2023-04-22T16:34:30.611Z,2.20
2023-04-22T16:37:03.267Z,2.10
2023-04-22T16:39:20.511Z,1.90
2023-04-22T16:41:53.175Z,1.70
2023-04-22T16:44:06.276Z,2.10
2023-04-22T16:46:22.450Z,1.50
2023-04-22T16:48:35.603Z,1.70
2023-04-22T16:50:48.618Z,1.90
2023-04-22T16:53:14.265Z,1.90
2023-04-22T16:55:37.212Z,2.10
2023-04-22T16:57:53.957Z,2.00
2023-04-22T17:00:11.781Z,2.30
2023-04-22T17:02:45.147Z,2.20
2023-04-22T17:05:02.246Z,2.20
2023-04-22T17:07:18.896Z,2.00
2023-04-22T17:09:42.246Z,1.60
2023-04-22T17:11:55.367Z,2.10
2023-04-22T17:14:28.232Z,2.20
2023-04-22T17:17:01.155Z,1.90
2023-04-22T17:19:33.852Z,1.90
2023-04-22T17:21:50.053Z,1.80
2023-04-22T17:24:22.719Z,1.70
2023-04-22T17:26:55.848Z,2.00
2023-04-22T17:29:12.030Z,2.00
2023-04-22T17:31:28.447Z,2.00
2023-04-22T17:33:44.003Z,2.20
2023-04-22T17:36:09.906Z,2.10
2023-04-22T17:38:33.928Z,2.10
2023-04-22T17:40:50.191Z,2.20
2023-04-22T17:43:22.800Z,2.50
2023-04-22T17:45:35.812Z,2.10
2023-04-22T17:47:52.896Z,2.00
2023-04-22T17:50:26.038Z,2.20
2023-04-22T17:52:39.639Z,2.20
2023-04-22T17:54:56.425Z,2.70
2023-04-22T17:57:13.774Z,3.10
2023-04-22T17:59:30.345Z,2.50
2023-04-22T18:01:46.632Z,3.00
2023-04-22T18:04:19.539Z,2.50
2023-04-22T18:06:42.606Z,2.50
2023-04-22T18:09:15.492Z,2.30
2023-04-22T18:11:48.363Z,2.00
2023-04-22T18:14:11.413Z,2.30
2023-04-22T18:16:27.362Z,1.70
2023-04-22T18:19:00.897Z,2.20
2023-04-22T18:21:23.465Z,1.80
2023-04-22T18:23:56.680Z,2.10
2023-04-22T18:26:29.602Z,1.60
2023-04-22T18:29:02.842Z,1.80
2023-04-22T18:31:18.784Z,1.60
2023-04-22T18:33:32.239Z,1.30
2023-04-22T18:35:45.026Z,1.70
2023-04-22T18:38:00.833Z,1.80
2023-04-22T18:40:36.433Z,1.30
2023-04-22T18:43:09.554Z,1.60
2023-04-22T18:45:42.482Z,1.50
2023-04-22T18:47:55.207Z,2.00
2023-04-22T18:50:19.022Z,1.50
2023-04-22T18:52:35.163Z,1.40
2023-04-22T18:54:48.632Z,1.30
2023-04-22T18:57:11.444Z,1.30
2023-04-22T18:59:24.090Z,1.30
2023-04-22T19:01:37.054Z,1.40
2023-04-22T19:04:02.845Z,1.40
2023-04-22T19:06:15.795Z,0.90
2023-04-22T19:08:31.499Z,1.20
2023-04-22T19:10:47.351Z,0.90
2023-04-22T19:13:29.171Z,0.70
2023-04-22T19:15:55.492Z,1.00
2023-04-22T19:18:28.484Z,0.80
2023-04-22T19:20:51.647Z,0.90
2023-04-22T19:23:25.111Z,0.50
2023-04-22T19:25:58.337Z,0.60
2023-04-22T19:28:14.794Z,0.60
2023-04-22T19:30:31.093Z,0.60
2023-04-22T19:32:43.869Z,0.60
2023-04-22T19:35:07.057Z,0.50
2023-04-22T19:37:20.070Z,0.60
2023-04-22T19:39:33.580Z,0.70
2023-04-22T19:41:49.596Z,0.50
2023-04-22T19:44:02.458Z,0.70
2023-04-22T19:46:36.028Z,0.70
2023-04-22T19:48:50.273Z,0.60
2023-04-22T19:51:06.644Z,0.60
2023-04-22T19:53:35.555Z,0.80
2023-04-22T19:55:49.662Z,1.00
2023-04-22T19:58:04.108Z,0.90
2023-04-22T20:00:38.555Z,0.70
2023-04-22T20:02:53.582Z,0.80
2023-04-22T20:05:29.091Z,0.80
2023-04-22T20:08:04.238Z,0.80
2023-04-22T20:10:23.902Z,1.00
2023-04-22T20:12:50.285Z,0.70
2023-04-22T20:15:23.426Z,0.70
2023-04-22T20:17:46.993Z,0.80
2023-04-22T20:20:14.134Z,0.80
2023-04-22T20:22:39.748Z,0.70
2023-04-22T20:25:03.070Z,0.70
2023-04-22T20:27:20.591Z,0.80
2023-04-22T20:29:39.248Z,1.00
2023-04-22T20:31:56.820Z,0.90
2023-04-22T20:34:10.879Z,0.80
2023-04-22T20:36:37.201Z,0.90
2023-04-22T20:39:13.911Z,0.70
2023-04-22T20:41:41.095Z,0.70
2023-04-22T20:43:54.180Z,1.00
2023-04-22T20:46:07.861Z,0.80
2023-04-22T20:48:41.274Z,0.70
2023-04-22T20:51:05.332Z,1.00
2023-04-22T20:53:38.208Z,0.80
2023-04-22T20:56:12.371Z,1.50
2023-04-22T20:58:36.205Z,1.50
2023-04-22T21:01:00.340Z,1.20
2023-04-22T21:03:25.711Z,1.60
2023-04-22T21:05:51.110Z,1.50
2023-04-22T21:08:28.184Z,1.30
2023-04-22T21:10:46.547Z,1.40
2023-04-22T21:13:00.223Z,1.60
2023-04-22T21:15:16.332Z,1.80
2023-04-22T21:17:33.073Z,2.40
2023-04-22T21:20:07.012Z,3.50
2023-04-22T21:22:42.257Z,3.80
2023-04-22T21:25:20.436Z,4.90
2023-04-22T21:27:49.591Z,4.10
2023-04-22T21:30:08.188Z,4.40
2023-04-22T21:32:24.298Z,4.00
2023-04-22T21:34:40.841Z,4.60
2023-04-22T21:36:59.013Z,4.20
2023-04-22T21:39:15.796Z,4.50
2023-04-22T21:41:48.504Z,6.10
2023-04-22T21:44:01.163Z,4.00
2023-04-22T21:46:25.863Z,4.30
2023-04-22T21:48:59.633Z,3.90
2023-04-22T21:51:15.931Z,4.30
2023-04-22T21:53:32.259Z,3.80
2023-04-22T21:55:48.128Z,3.30
2023-04-22T21:58:20.669Z,3.30
2023-04-22T22:00:38.886Z,3.90
2023-04-22T22:03:02.951Z,2.80
2023-04-22T22:05:36.553Z,3.00
2023-04-22T22:07:50.166Z,2.90
2023-04-22T22:10:03.066Z,2.70
2023-04-22T22:12:26.293Z,2.80
2023-04-22T22:14:43.687Z,2.70
2023-04-22T22:17:00.149Z,2.30
2023-04-22T22:19:18.815Z,2.50
2023-04-22T22:21:33.087Z,1.90
2023-04-22T22:23:46.402Z,1.90
2023-04-22T22:26:19.113Z,2.00
2023-04-22T22:28:31.986Z,2.20
2023-04-22T22:31:05.495Z,2.30
2023-04-22T22:33:20.244Z,1.70
2023-04-22T22:35:53.137Z,1.90
2023-04-22T22:38:06.362Z,1.50
2023-04-22T22:40:22.598Z,1.70
2023-04-22T22:42:36.082Z,2.10
2023-04-22T22:44:51.848Z,1.40
2023-04-22T22:47:05.246Z,1.40
2023-04-22T22:49:18.326Z,1.30
2023-04-22T22:51:33.770Z,1.40
2023-04-22T22:53:50.086Z,0.70
2023-04-22T22:56:16.098Z,0.90
2023-04-22T22:58:49.767Z,0.80
2023-04-22T23:01:23.359Z,1.40
2023-04-22T23:03:56.961Z,1.30
2023-04-22T23:06:11.322Z,0.90
2023-04-22T23:08:24.029Z,0.90
2023-04-22T23:10:39.959Z,1.00
2023-04-22T23:13:12.894Z,1.00
2023-04-22T23:15:36.514Z,0.80
2023-04-22T23:17:59.110Z,0.70
2023-04-22T23:20:24.040Z,1.00
2023-04-22T23:22:37.423Z,0.80
2023-04-22T23:24:52.113Z,0.80
2023-04-22T23:27:25.770Z,1.00
2023-04-22T23:29:40.101Z,0.90
2023-04-22T23:32:17.612Z,1.10
2023-04-22T23:34:43.893Z,1.10
2023-04-22T23:37:01.487Z,0.70
2023-04-22T23:39:34.485Z,1.00
2023-04-22T23:41:47.220Z,0.90
2023-04-22T23:44:10.196Z,1.00
2023-04-22T23:46:23.423Z,0.80
2023-04-22T23:48:37.234Z,0.90
2023-04-22T23:50:50.334Z,1.00
2023-04-22T23:53:23.241Z,1.00
2023-04-22T23:55:40.479Z,0.90
2023-04-22T23:58:14.069Z,1.00
